Date,TemperatureHighF,TemperatureAvgF,TemperatureLowF,DewpointHighF,DewpointAvgF,DewpointLowF,HumidityHigh,HumidityAvg,HumidityLow,PressureMaxIn,PressureMinIn,WindSpeedMaxMPH,WindSpeedAvgMPH,GustSpeedMaxMPH,PrecipitationSumIn
2013-1-1,36,31,20,28,20,9,81,65,51,29.98,29.78,32,4,35,0.06
2013-1-2,30,20,12,17,11,4,86,68,56,30.15,29.95,24,3,24,0.04
2013-1-3,23,15,6,15,4,-4,82,62,36,30.20,30.04,14,2,19,0.03
2013-1-4,37,27,16,26,20,13,91,76,59,30.04,29.87,23,1,23,0.09
2013-1-5,40,30,23,26,22,19,92,73,50,30.30,29.90,26,2,26,0.01
2013-1-6,29,26,23,27,23,19,93,87,82,30.28,30.12,5,0,5,0.00
2013-1-7,38,29,22,24,21,19,90,75,51,30.45,30.34,10,1,10,0.00
2013-1-8,45,33,22,32,26,19,94,79,56,30.42,30.31,22,2,22,0.00
2013-1-9,43,35,23,36,30,21,96,83,64,30.44,30.04,19,2,22,0.00
2013-1-10,44,39,31,32,26,24,77,60,46,30.56,30.10,32,6,33,0.00
2013-1-11,38,33,26,36,29,23,96,85,71,30.56,30.24,8,0,9,0.16
2013-1-12,42,39,37,42,39,36,100,97,96,30.26,30.15,5,0,6,0.05
2013-1-13,51,46,40,50,45,39,99,97,93,30.19,30.03,17,1,17,0.00
2013-1-14,58,50,40,52,43,30,100,79,46,30.28,29.89,24,3,24,0.00
2013-1-15,41,37,32,33,29,26,89,75,57,30.35,30.24,13,1,13,0.02
2013-1-16,34,32,30,32,30,25,97,92,72,30.28,29.86,6,0,6,0.07
2013-1-17,40,34,30,32,27,17,97,78,57,30.12,29.88,19,2,19,0.33
2013-1-18,30,22,18,20,8,0,74,53,35,30.50,30.06,22,3,26,0.00
2013-1-19,45,35,19,33,25,9,84,67,50,30.43,29.92,23,3,26,0.02
2013-1-20,52,41,28,33,27,11,80,60,37,29.96,29.58,32,6,33,0.00
2013-1-21,29,25,20,21,14,8,91,63,44,30.14,29.83,24,2,24,0.00
2013-1-22,23,19,12,21,9,-1,93,65,38,30.13,29.78,27,4,27,0.03
2013-1-23,15,10,5,4,-3,-7,74,54,42,30.21,30.12,28,4,28,0.00
2013-1-24,19,10,1,-2,-5,-7,76,52,35,30.29,30.13,26,5,28,0.00
2013-1-25,23,16,6,14,-1,-7,86,48,30,30.37,30.09,22,2,22,0.00
2013-1-26,23,15,10,14,7,-1,88,72,44,30.30,30.05,22,-6,22,0.01
2013-1-27,29,20,11,10,5,2,72,53,33,30.52,30.29,22,4,22,0.01
2013-1-28,32,24,17,26,17,7,95,74,42,30.51,30.05,10,0,11,0.00
2013-1-29,33,30,26,32,29,24,97,94,92,30.23,30.04,7,0,7,0.21
2013-1-30,58,48,33,57,47,32,99,97,91,30.19,29.47,25,4,30,0.15
2013-1-31,60,47,30,58,39,16,96,74,42,29.63,29.00,40,8,40,0.50
2013-2-1,32,28,21,20,12,6,71,52,39,30.14,29.63,28,5,30,0.00
2013-2-2,30,24,16,16,10,4,73,56,43,30.30,30.09,23,2,23,0.00
2013-2-3,29,25,20,23,21,15,91,84,65,30.10,29.78,10,1,12,0.01
2013-2-4,29,23,17,21,14,8,90,69,44,30.00,29.77,26,4,26,0.00
2013-2-5,27,24,20,22,18,12,92,77,66,30.07,29.97,7,-101,7,0.00
2013-2-6,37,29,24,27,20,6,93,70,44,30.33,29.96,22,-681,22,0.03
2013-2-7,30,24,17,15,9,4,75,52,34,30.57,30.33,14,1,14,0.00
2013-2-8,32,28,18,31,24,14,97,88,65,30.51,29.60,39,6,39,0.01
2013-2-9,23,19,14,21,17,11,94,92,86,30.26,29.57,33,9,33,0.00
2013-2-10,34,20,5,29,16,2,99,85,72,30.45,30.26,21,2,21,0.20
2013-2-11,42,33,17,42,31,14,98,95,87,30.40,29.64,17,1,17,0.23
2013-2-12,42,37,31,40,31,27,98,81,65,29.93,29.65,28,4,30,0.00
2013-2-13,41,33,24,32,27,22,94,80,61,29.92,29.74,15,1,15,0.00
2013-2-14,42,34,28,30,26,22,92,72,48,30.03,29.74,16,1,16,0.00
2013-2-15,49,36,25,36,30,23,97,82,59,30.05,29.94,18,2,20,0.00
2013-2-16,36,33,30,32,29,20,96,84,63,29.98,29.71,20,2,22,0.03
2013-2-17,30,22,16,23,12,3,91,69,43,29.77,29.45,45,11,45,0.00
2013-2-18,29,21,14,10,4,1,65,48,30,30.22,29.77,29,7,31,0.06
2013-2-19,47,34,18,42,27,9,97,77,53,30.22,29.61,15,1,16,0.29
2013-2-20,39,31,25,38,21,11,97,66,46,29.84,29.57,28,7,28,0.01
2013-2-21,32,27,23,17,16,14,72,62,50,30.25,29.82,28,6,28,0.00
2013-2-22,38,31,21,26,21,17,86,69,52,30.43,30.25,18,2,18,0.00
2013-2-23,38,33,30,32,30,26,97,87,75,30.32,29.92,12,1,12,0.14
2013-2-24,35,33,32,34,32,30,97,97,95,29.92,29.73,19,3,19,0.72
2013-2-25,38,34,28,34,31,27,100,92,76,30.28,29.92,12,1,12,0.25
2013-2-26,42,37,32,34,31,27,96,80,57,30.37,30.17,10,1,11,0.00
2013-2-27,42,39,35,41,38,31,98,96,84,30.17,29.60,24,4,24,1.58
2013-2-28,44,37,32,40,35,31,98,95,84,29.68,29.55,6,0,8,0.01
2013-3-1,42,37,31,34,31,28,98,80,64,29.71,29.55,21,2,23,0.00
2013-3-2,41,36,33,32,29,27,81,73,62,29.72,29.66,15,2,15,0.00
2013-3-3,41,35,31,31,28,26,92,78,63,29.68,29.59,13,3,14,0.00
2013-3-4,39,33,28,28,24,21,83,70,58,29.78,29.63,27,7,27,0.00
2013-3-5,44,36,29,33,28,23,93,73,56,30.09,29.78,17,3,19,0.00
2013-3-6,39,36,34,37,33,31,100,91,77,30.11,30.05,32,-3,33,0.21
2013-3-7,35,32,30,32,30,29,97,94,81,30.06,30.00,29,9,31,0.20
2013-3-8,37,32,30,33,30,27,98,93,77,30.18,29.95,27,7,27,0.01
2013-3-9,45,35,26,32,27,23,100,74,45,30.39,30.17,23,3,23,1.75
2013-3-10,44,34,23,34,29,22,97,83,62,30.45,30.35,7,1,12,0.00
2013-3-11,50,41,34,42,37,31,100,85,64,30.38,30.18,14,2,15,0.00
2013-3-12,54,49,41,52,47,40,98,95,88,30.18,29.75,25,4,25,0.51
2013-3-13,50,42,32,50,33,22,98,73,41,29.82,29.74,23,4,23,0.00
2013-3-14,36,30,23,28,18,8,90,62,44,29.91,29.76,29,6,33,0.00
2013-3-15,40,30,20,29,16,9,85,58,30,29.93,29.68,22,3,23,0.00
2013-3-16,39,34,28,28,19,11,85,56,33,29.91,29.72,15,2,15,0.00
2013-3-17,38,31,24,22,14,5,83,53,27,30.36,29.90,24,4,26,0.00
2013-3-18,38,28,17,26,11,2,84,50,29,30.51,30.25,12,1,12,0.00
2013-3-19,37,32,29,35,31,26,97,95,85,30.25,29.64,23,4,23,0.47
2013-3-20,38,31,25,28,23,19,94,74,51,29.87,29.73,29,3,31,0.43
2013-3-21,36,30,25,29,24,19,91,79,58,29.89,29.65,12,1,15,0.05
2013-3-22,38,33,27,26,21,17,89,63,46,29.80,29.65,23,5,24,0.00
2013-3-23,41,34,27,25,22,20,83,61,43,29.84,29.70,34,6,34,0.00
2013-3-24,46,37,29,30,24,20,85,61,42,29.87,29.75,19,3,20,0.00
2013-3-25,43,36,30,34,30,26,92,77,61,29.80,29.54,24,4,24,0.01
2013-3-26,47,39,31,32,28,24,85,66,42,29.83,29.55,18,3,18,0.01
2013-3-27,53,40,27,31,26,23,91,61,33,29.89,29.78,22,4,23,0.00
2013-3-28,49,42,36,36,33,30,92,73,48,30.05,29.89,19,2,20,0.01
2013-3-29,56,45,32,36,32,28,94,64,37,30.09,29.99,20,3,20,0.00
2013-3-30,56,46,34,33,27,16,85,52,23,30.13,30.02,19,3,20,0.00
2013-3-31,59,44,28,43,30,24,92,63,28,30.15,29.74,25,2,26,0.04
2013-4-1,61,47,34,46,39,15,96,75,43,29.84,29.52,28,4,29,0.49
2013-4-2,40,34,27,21,16,11,78,50,32,30.00,29.83,29,5,30,0.00
2013-4-3,44,36,30,18,16,12,60,45,29,30.21,29.99,29,7,29,0.00
2013-4-4,54,40,26,29,20,14,75,48,23,30.35,30.09,18,2,20,0.00
2013-4-5,60,46,36,35,28,20,79,55,24,30.09,29.65,28,4,31,0.00
2013-4-6,46,38,30,27,16,4,67,43,18,30.37,29.91,24,5,29,0.00
2013-4-7,55,41,26,41,30,19,86,66,36,30.37,30.04,27,4,29,0.00
2013-4-8,65,52,41,44,41,36,97,69,36,30.11,29.99,15,2,16,0.00
2013-4-9,71,58,47,54,45,40,95,67,40,30.11,29.87,24,4,27,0.00
2013-4-10,66,53,45,52,47,43,96,80,58,30.02,29.86,20,2,20,0.19
2013-4-11,53,48,40,47,41,28,96,81,47,30.17,29.83,16,3,16,0.04
2013-4-12,41,39,38,38,36,32,96,90,72,30.18,29.80,21,4,21,0.44
2013-4-13,53,44,36,41,37,34,96,79,52,29.96,29.75,17,3,21,0.05
2013-4-14,52,44,34,40,34,27,94,69,42,30.25,29.96,24,3,24,0.00
2013-4-15,58,44,31,38,34,28,92,68,40,30.42,30.25,12,2,14,0.00
2013-4-16,64,51,35,51,43,34,97,77,52,30.43,30.09,26,4,26,0.00
2013-4-17,66,58,45,52,41,28,89,57,25,30.35,30.08,19,4,20,0.00
2013-4-18,63,50,37,47,38,29,95,66,35,30.44,30.16,21,3,21,0.00
2013-4-19,72,62,51,63,58,47,100,88,69,30.16,29.68,27,4,27,0.00
2013-4-20,64,54,43,62,43,26,96,70,43,30.26,29.62,23,4,23,0.08
2013-4-21,53,43,33,33,25,19,82,52,28,30.70,30.26,20,3,22,0.00
2013-4-22,52,42,31,36,31,25,100,68,38,30.76,30.60,23,3,23,0.00
2013-4-23,42,41,38,41,38,32,97,91,75,30.60,30.13,22,5,22,0.01
2013-4-24,73,54,41,54,45,40,97,75,32,30.13,29.81,22,4,22,0.01
2013-4-25,63,54,42,52,39,27,94,61,26,30.29,29.85,26,4,26,0.02
2013-4-26,64,50,37,43,37,29,87,63,39,30.44,30.29,16,2,16,0.00
2013-4-27,63,50,35,45,38,33,96,69,38,30.44,30.31,16,1,16,0.00
2013-4-28,67,52,36,43,37,30,94,60,35,30.36,30.24,19,2,19,0.00
2013-4-29,66,55,44,49,40,31,93,61,32,30.30,30.22,17,2,17,0.00
2013-4-30,69,55,41,39,34,22,82,48,19,30.38,30.27,14,1,14,0.00
2013-5-1,68,54,36,44,37,30,88,56,29,30.49,30.38,13,1,13,0.00
2013-5-2,76,57,42,50,43,39,93,65,28,30.50,30.33,20,2,20,0.00
2013-5-3,59,50,42,46,41,38,88,73,58,30.53,30.40,20,3,20,0.00
2013-5-4,60,49,37,48,37,24,96,68,30,30.40,30.31,17,2,17,0.00
2013-5-5,63,49,36,47,40,33,96,73,45,30.35,30.24,15,1,15,0.00
2013-5-6,71,55,39,52,46,37,94,74,45,30.31,30.15,15,1,15,0.00
2013-5-7,75,61,43,60,52,42,96,76,53,30.20,30.10,15,1,16,0.00
2013-5-8,71,62,54,65,59,52,99,89,68,30.20,30.05,21,2,21,0.18
2013-5-9,68,60,55,62,58,54,98,94,75,30.05,29.88,3,-52,4,0.39
2013-5-10,78,66,52,63,57,52,98,75,44,29.97,29.90,14,1,15,0.00
2013-5-11,71,63,58,63,59,54,96,88,72,29.94,29.71,21,2,27,0.05
2013-5-12,70,61,46,60,52,34,97,76,47,29.85,29.58,24,3,25,0.02
2013-5-13,58,49,39,38,34,29,85,58,37,30.05,29.85,21,3,21,0.00
2013-5-14,58,49,38,37,33,30,83,58,36,30.08,30.00,21,3,21,0.00
2013-5-15,64,51,35,52,42,32,93,74,37,30.08,29.70,16,2,21,0.03
2013-5-16,80,65,50,52,46,37,97,57,22,29.81,29.65,25,3,27,0.00
2013-5-17,68,59,48,49,44,38,84,60,37,30.24,29.80,21,2,21,0.00
2013-5-18,72,59,44,51,46,39,96,65,34,30.32,30.24,15,1,16,0.00
2013-5-19,71,58,47,56,51,45,96,79,53,30.36,30.23,16,1,16,0.09
2013-5-20,81,68,56,68,62,54,98,83,58,30.23,29.92,17,-6,17,0.03
2013-5-21,86,66,52,73,61,51,97,86,55,30.01,29.83,20,1,20,0.08
2013-5-22,74,61,51,68,58,49,97,90,79,30.06,29.87,16,1,16,0.02
2013-5-23,74,66,57,69,64,56,99,92,79,29.93,29.82,22,2,23,0.25
2013-5-24,70,63,50,67,61,48,98,95,86,29.84,29.67,16,2,16,0.41
2013-5-25,52,48,41,50,46,39,98,96,91,29.83,29.74,23,4,25,0.23
2013-5-26,58,49,40,44,40,37,96,74,52,30.14,29.77,30,7,30,0.02
2013-5-27,71,56,40,49,41,34,97,63,29,30.19,30.09,24,3,26,0.00
2013-5-28,74,60,43,56,48,40,95,67,37,30.25,30.17,14,1,14,0.00
2013-5-29,75,64,58,68,62,56,98,91,77,30.20,29.99,27,1,27,0.91
2013-5-30,87,75,62,73,68,62,99,81,54,30.11,30.01,19,2,19,0.01
2013-5-31,91,78,65,76,68,64,98,74,45,30.11,29.96,15,1,17,0.00
2013-6-1,88,77,66,73,67,62,91,72,52,30.00,29.89,20,2,20,0.00
2013-6-2,86,76,67,72,67,64,92,76,54,29.91,29.76,26,3,26,0.00
2013-6-3,76,68,61,69,65,54,97,91,77,29.86,29.78,13,1,13,0.64
2013-6-4,70,61,49,55,47,42,85,62,43,30.11,29.84,21,3,22,0.00
2013-6-5,73,61,48,54,49,44,94,67,43,30.21,30.11,12,1,16,0.00
2013-6-6,73,62,51,58,52,46,92,70,48,30.20,30.11,13,1,14,0.01
2013-6-7,60,56,54,60,55,53,98,96,89,30.11,29.81,14,1,16,3.48
2013-6-8,76,62,53,67,59,53,99,89,69,30.03,29.62,14,3,18,0.96
2013-6-9,77,67,55,62,58,54,98,75,49,30.18,30.03,20,2,20,0.00
2013-6-10,70,62,54,64,59,53,97,89,67,30.21,30.01,9,0,10,0.78
2013-6-11,66,60,57,63,59,56,99,96,86,30.02,29.58,12,1,12,1.47
2013-6-12,69,63,57,59,56,52,98,78,60,29.83,29.57,28,5,30,0.00
2013-6-13,64,56,50,60,54,49,98,93,84,29.84,29.67,16,1,16,0.85
2013-6-14,71,58,51,61,54,50,98,87,61,29.75,29.63,18,4,19,1.49
2013-6-16,74,71,67,64,62,57,89,73,61,29.90,29.74,14,2,14,0.00
2013-6-17,83,70,59,68,62,58,97,79,49,29.93,29.79,33,2,33,0.20
2013-6-18,79,64,58,69,61,57,99,91,61,29.96,29.85,22,1,22,0.39
2013-6-19,73,64,55,61,56,49,98,79,45,30.16,29.91,12,1,12,0.03
2013-6-20,76,65,51,60,54,49,98,71,41,30.27,30.16,13,1,13,0.00
2013-6-21,82,70,57,70,61,53,89,76,55,30.28,30.20,15,1,16,0.00
2013-6-22,81,71,62,68,61,55,82,70,55,30.24,30.14,15,2,15,0.00
2013-6-23,86,75,62,76,66,57,87,76,60,30.18,30.02,18,2,19,0.00
2013-6-24,90,79,69,77,71,66,96,79,55,30.04,29.89,16,2,23,0.07
2013-6-25,89,77,66,76,70,65,97,81,56,29.95,29.75,22,1,27,0.03
2013-6-26,86,76,68,75,70,67,97,85,60,29.86,29.74,15,1,16,0.01
2013-6-27,70,67,64,68,65,62,98,95,90,29.87,29.75,11,1,11,0.01
2013-6-28,81,71,64,74,69,63,99,92,76,29.76,29.50,18,2,19,0.28
2013-6-29,82,74,70,73,70,68,98,87,70,29.74,29.52,17,1,17,0.00
2013-6-30,83,75,70,76,71,68,95,86,75,29.94,29.73,14,1,15,0.01
2013-7-1,82,74,71,76,72,69,98,93,78,30.09,29.94,16,1,18,0.06
2013-7-2,82,76,72,75,73,71,96,89,76,30.19,30.09,13,1,16,0.06
2013-7-3,86,76,66,77,72,64,98,87,71,30.23,30.15,13,1,19,0.01
2013-7-4,89,81,72,79,74,71,97,83,65,30.22,30.11,14,1,14,0.00
2013-7-5,90,82,72,79,74,70,95,78,58,30.18,30.05,15,1,17,0.00
2013-7-6,90,81,73,78,74,71,90,76,55,30.09,29.99,15,2,19,0.00
2013-7-7,91,79,71,80,73,69,90,80,58,30.04,29.91,18,0,18,0.21
2013-7-8,87,78,67,78,73,66,90,79,58,30.06,29.91,10,-55,17,1.98
2013-7-9,77,70,66,72,68,66,91,86,72,30.11,30.04,6,-670,6,0.00
2013-7-10,84,75,68,77,72,66,91,84,69,30.08,29.81,14,-447,15,0.03
2013-7-11,81,75,71,76,73,69,91,86,78,29.93,29.79,10,-554,10,0.31
2013-7-12,76,70,65,69,64,59,86,74,63,30.20,29.92,20,2,20,0.00
2013-7-13,76,70,65,73,68,62,90,86,81,30.32,30.20,7,0,7,0.07
2013-7-14,88,79,71,78,74,70,91,77,55,30.31,30.20,15,1,15,0.00
2013-7-15,89,80,72,79,74,70,89,77,55,30.21,30.10,7,0,11,0.00
2013-7-16,90,81,69,74,71,67,87,68,44,30.17,30.11,12,1,14,0.00
2013-7-17,90,81,71,78,73,69,88,73,51,30.19,30.02,12,0,12,0.00
2013-7-18,92,83,74,80,74,71,86,71,51,30.03,29.93,11,1,12,0.00
2013-7-19,93,84,75,81,76,73,87,73,55,29.95,29.74,18,1,19,0.00
2013-7-20,91,81,73,81,76,71,87,79,60,29.82,29.66,15,1,21,0.22
2013-7-21,85,76,68,73,68,62,87,72,45,29.99,29.82,9,0,9,0.00
2013-7-22,84,74,67,74,69,65,89,77,55,30.01,29.88,9,0,13,0.00
2013-7-23,83,74,71,78,72,69,91,87,70,29.88,29.54,19,1,24,2.58
2013-7-24,83,75,68,75,70,59,91,77,56,29.94,29.59,16,1,16,0.01
2013-7-25,68,60,58,60,56,51,90,79,63,30.10,29.94,14,1,14,0.53
2013-7-26,71,64,59,68,62,58,91,88,82,30.06,29.96,15,1,15,0.55
2013-7-27,80,69,60,71,65,59,91,81,62,30.08,30.00,11,0,11,0.00
2013-7-28,84,73,64,74,68,62,89,79,55,30.03,29.96,9,0,9,0.00
2013-7-29,82,74,67,74,70,65,89,81,65,30.05,29.96,9,1,13,0.00
2013-7-30,80,70,61,66,62,58,87,70,48,30.12,30.04,16,2,16,0.00
2013-7-31,80,70,60,68,63,58,88,73,52,30.15,30.05,10,0,10,0.00
2013-8-1,80,69,61,70,64,60,90,78,60,30.07,29.89,10,1,15,0.00
2013-8-2,80,71,64,71,65,62,90,77,52,29.90,29.81,16,1,19,0.30
2013-8-3,76,69,62,68,64,60,88,78,63,29.88,29.80,13,1,13,0.00
2013-8-4,78,66,57,64,59,56,88,74,46,29.91,29.78,26,2,26,0.04
2013-8-5,76,63,53,58,52,44,89,67,33,30.06,29.91,18,2,20,0.00
2013-8-6,77,64,50,61,55,48,89,68,43,30.16,30.06,8,0,9,0.00
2013-8-7,76,66,55,63,57,52,90,70,41,30.20,30.12,11,1,12,0.00
2013-8-8,78,71,63,72,67,58,89,81,74,30.13,30.01,14,1,16,0.08
2013-8-9,73,72,71,72,70,69,89,87,85,30.04,29.91,13,1,15,0.16
2013-8-12,78,72,65,67,64,60,85,71,51,29.97,29.93,9,0,10,0.00
2013-8-13,73,67,63,69,65,61,89,84,73,29.95,29.70,9,0,9,0.01
2013-8-14,72,65,58,64,57,52,89,69,51,29.99,29.68,23,4,27,0.00
2013-8-15,75,63,52,61,55,50,89,70,43,30.13,29.99,14,1,16,0.00
2013-8-16,76,65,53,63,57,51,89,71,46,30.20,30.12,12,1,13,0.00
2013-8-17,78,68,56,65,60,54,89,71,45,30.28,30.20,9,0,9,0.00
2013-8-18,78,67,59,67,62,57,89,76,50,30.28,30.10,10,0,10,0.00
2013-8-19,80,69,58,68,62,56,89,75,52,30.10,29.97,14,1,14,0.00
2013-8-20,82,72,62,70,64,59,88,72,46,30.11,29.99,13,1,13,0.00
2013-8-21,84,72,61,72,66,60,89,75,50,30.16,30.04,10,0,11,0.00
2013-8-22,82,73,64,74,69,63,89,80,66,30.06,29.84,15,1,15,0.00
2013-8-23,78,71,62,69,63,54,88,70,44,30.13,29.83,17,1,17,0.00
2013-8-24,74,64,53,58,53,48,85,64,38,30.35,30.13,12,1,12,0.00
2013-8-25,78,66,53,62,57,51,90,69,41,30.38,30.20,10,1,10,0.00
2013-8-26,78,70,63,70,64,58,86,75,61,30.21,29.89,14,1,14,0.01
2013-8-27,80,72,66,73,68,64,90,83,67,29.91,29.83,9,0,9,0.16
2013-8-28,83,72,62,72,66,61,91,76,50,29.97,29.85,11,0,11,0.00
2013-8-29,67,64,60,65,62,58,90,87,83,30.08,29.95,14,1,14,0.01
2013-8-30,79,68,60,70,64,58,88,81,66,30.05,29.85,13,1,13,0.00
2013-8-31,80,73,67,74,71,66,91,85,75,29.85,29.80,13,1,13,0.00
2013-9-1,78,73,69,76,72,68,91,88,81,29.89,29.81,10,-3,10,0.16
2013-9-2,80,74,69,76,72,68,91,87,78,29.87,29.72,17,0,17,0.43
2013-9-3,78,71,62,72,69,60,91,84,72,29.84,29.70,17,0,20,0.00
2013-9-4,77,66,57,64,60,56,90,75,48,29.94,29.83,15,1,16,0.00
2013-9-5,69,62,50,64,57,48,89,78,48,30.16,29.88,16,1,16,0.07
2013-9-6,66,55,44,53,46,42,88,69,42,30.27,30.12,10,1,11,0.00
2013-9-7,76,61,48,61,53,46,86,71,40,30.12,29.88,12,1,13,0.00
2013-9-8,74,64,50,64,55,43,88,68,41,30.11,29.76,16,2,22,0.00
2013-9-9,68,55,43,54,48,41,88,70,47,30.26,30.10,12,1,13,0.00
2013-9-10,75,66,54,70,63,51,88,84,77,30.18,30.04,15,1,17,0.03
2013-9-11,90,78,68,80,73,67,91,79,56,30.09,29.96,14,1,15,0.00
2013-9-12,85,76,68,77,71,67,89,80,63,29.99,29.69,22,2,22,0.48
2013-9-13,77,69,60,70,65,56,91,82,63,29.77,29.58,17,1,17,0.11
2013-9-14,67,60,52,57,54,50,86,75,61,30.08,29.77,13,2,14,0.00
2013-9-15,69,57,47,57,52,46,90,77,52,30.18,30.07,10,0,10,0.00
2013-9-16,66,57,48,58,52,39,87,78,63,30.26,30.03,15,1,17,0.02
2013-9-17,60,50,39,48,41,36,85,67,43,30.44,30.26,16,1,16,0.00
2013-9-18,69,54,40,54,47,39,91,72,40,30.35,30.16,10,1,11,0.00
2013-9-19,75,60,46,61,53,45,90,74,43,30.16,30.05,11,0,11,0.00
2013-9-20,76,61,48,62,55,47,91,75,42,30.10,30.00,6,0,6,0.00
2013-9-21,73,64,53,66,61,52,91,82,63,30.04,29.73,18,2,18,0.00
2013-9-22,69,63,51,68,58,47,90,77,55,29.85,29.62,21,3,23,0.73
2013-9-23,62,52,43,48,44,41,85,68,52,30.03,29.85,18,2,18,0.00
2013-9-24,65,52,40,49,44,39,88,68,42,30.02,29.83,17,2,18,0.00
2013-9-25,67,56,44,56,49,43,89,73,56,29.99,29.88,16,1,17,0.00
2013-9-26,64,57,52,54,50,47,86,74,54,30.13,29.99,9,1,11,0.00
2013-9-27,64,57,50,56,52,49,87,78,64,30.28,30.13,11,1,12,0.00
2013-9-28,72,57,46,58,52,46,91,77,52,30.34,30.27,11,0,12,0.00
2013-9-29,66,53,45,55,48,43,91,78,50,30.28,30.13,7,0,8,0.00
2013-9-30,65,55,49,54,50,47,90,78,51,30.14,29.97,7,0,11,0.01
2013-10-1,74,59,45,61,52,44,91,74,42,29.98,29.86,17,1,17,0.00
2013-10-2,77,64,53,64,58,52,91,76,55,29.97,29.85,19,1,19,0.00
2013-10-3,75,61,50,59,53,49,90,72,41,30.10,29.97,9,0,9,0.00
2013-10-4,62,55,50,59,53,48,90,86,69,30.10,30.05,13,0,15,1.07
2013-10-5,68,61,56,63,59,56,91,85,73,30.14,30.06,5,0,6,0.07
2013-10-6,60,57,56,58,56,55,91,89,85,30.22,30.12,10,0,10,0.83
2013-10-7,74,65,56,71,63,56,92,86,76,30.14,29.84,23,2,24,0.06
2013-10-8,64,56,46,56,48,44,87,72,46,30.38,29.93,18,1,19,0.00
2013-10-9,60,50,42,48,44,40,87,75,52,30.48,30.37,14,1,15,0.00
2013-10-10,62,52,43,56,49,42,90,83,70,30.37,30.17,11,1,11,0.00
2013-10-11,68,57,50,59,52,47,89,77,57,30.18,30.10,10,1,11,0.00
2013-10-12,62,54,50,57,52,48,89,85,76,30.39,30.15,18,2,18,0.01
2013-10-13,59,52,41,52,48,40,88,79,62,30.45,30.37,12,1,13,0.00
2013-10-14,62,48,34,50,43,33,91,77,44,30.43,30.27,6,0,6,0.01
2013-10-15,67,56,46,56,51,45,90,76,54,30.29,30.18,8,0,8,0.00
2013-10-16,61,54,47,56,52,46,91,85,76,30.19,29.93,6,0,6,0.00
2013-10-17,68,60,50,62,57,50,91,84,71,29.93,29.73,14,1,15,0.03
2013-10-18,65,59,47,61,52,44,90,74,49,29.94,29.63,24,3,25,0.01
2013-10-19,64,52,39,50,45,38,90,72,45,30.00,29.76,11,1,11,0.00
2013-10-20,60,52,41,51,42,33,88,66,36,30.05,29.71,23,3,23,0.00
2013-10-21,65,50,37,48,41,35,88,68,40,30.14,30.01,16,1,17,0.00
2013-10-22,67,53,42,55,47,39,91,76,52,30.01,29.72,18,1,20,0.01
2013-10-23,50,44,36,42,38,34,89,73,51,29.82,29.61,10,0,11,0.00
2013-10-24,52,43,34,38,33,27,87,65,38,29.92,29.67,22,2,22,0.00
2013-10-25,48,39,31,36,31,29,86,69,46,30.20,29.92,19,2,19,0.00
2013-10-26,54,42,30,40,32,28,88,67,37,30.19,29.89,24,2,26,0.00
2013-10-27,54,46,37,41,36,31,86,65,42,30.10,29.83,21,3,23,0.01
2013-10-28,57,43,30,39,34,28,87,65,42,30.37,30.10,26,2,26,0.00
2013-10-29,47,37,30,32,27,24,79,63,37,30.48,30.37,12,0,12,0.00
2013-10-30,54,40,29,44,36,26,86,79,60,30.40,30.22,11,0,12,0.00
2013-10-31,61,49,32,60,47,31,90,86,81,30.27,29.81,20,1,20,0.05
2013-11-1,68,63,57,64,59,54,89,80,69,29.81,29.49,31,5,38,0.16
2013-11-2,64,54,47,54,48,43,89,73,42,29.74,29.60,14,1,14,0.00
2013-11-3,52,42,32,47,32,19,80,64,38,30.44,29.73,17,2,18,0.00
2013-11-4,41,33,25,25,20,16,79,57,33,30.74,30.44,16,1,16,0.00
2013-11-5,49,36,24,35,29,21,85,69,46,30.75,30.54,7,0,8,0.00
2013-11-6,59,49,37,50,43,34,86,75,52,30.55,30.06,17,2,22,0.00
2013-11-7,67,54,39,60,51,35,89,83,69,30.07,29.69,21,3,22,0.27
2013-11-8,47,38,30,37,30,24,86,67,42,30.14,29.84,27,4,29,0.00
2013-11-9,44,36,26,32,27,24,84,67,45,30.26,30.06,18,1,18,0.00
2013-11-10,54,45,39,44,38,32,87,70,51,30.06,29.76,31,2,31,0.02
2013-11-11,50,44,35,36,31,28,75,55,40,30.14,29.90,26,4,28,0.00
2013-11-12,49,36,27,40,27,16,86,66,54,30.23,29.91,21,4,26,0.07
2013-11-13,35,27,21,19,17,13,77,61,39,30.34,30.21,20,2,20,0.00
2013-11-14,49,38,26,28,23,18,67,52,35,30.21,30.09,21,2,21,0.00
2013-11-15,60,44,32,35,27,21,76,50,24,30.24,30.14,18,1,18,0.00
2013-11-16,58,44,35,39,34,28,83,64,29,30.35,30.22,12,1,12,0.00
2013-11-17,58,47,33,58,45,31,91,84,72,30.34,29.84,11,1,11,0.11
2013-11-18,63,57,47,62,49,33,91,71,45,29.84,29.56,20,3,22,0.32
2013-11-19,47,40,31,34,25,19,59,51,43,30.31,29.68,26,6,28,0.00
2013-11-20,40,31,23,21,18,12,75,54,29,30.65,30.31,17,2,18,0.00
2013-11-21,46,33,20,33,24,17,82,66,40,30.68,30.41,11,0,11,0.00
2013-11-22,49,44,38,49,43,33,90,86,75,30.41,29.85,7,0,7,0.13
2013-11-23,47,40,29,46,28,17,90,60,34,29.94,29.82,29,6,29,0.00
2013-11-24,29,24,20,19,6,-4,63,44,24,30.26,29.85,38,-7,40,0.00
2013-11-25,32,24,15,21,7,-4,63,45,23,30.43,30.25,22,3,22,0.00
2013-11-26,41,36,30,39,26,20,90,63,42,30.37,30.05,13,1,14,0.14
2013-11-27,61,51,36,61,50,33,91,89,83,30.05,29.23,27,5,27,1.97
2013-11-28,36,29,21,33,19,11,84,60,40,30.49,29.51,30,5,35,0.00
2013-11-29,33,27,21,20,15,6,78,57,42,30.79,30.49,18,2,18,0.00
2013-11-30,32,24,14,24,16,9,78,66,50,30.84,30.47,9,0,10,0.00
2013-12-1,38,34,30,37,32,24,90,85,74,30.47,30.05,7,0,7,0.15
2013-12-2,40,37,36,40,37,35,91,90,87,30.05,29.94,6,0,6,0.00
2013-12-3,48,38,31,39,35,29,91,82,56,29.99,29.87,15,2,15,0.00
2013-12-4,45,34,28,34,30,27,90,80,55,30.23,29.98,7,0,11,0.01
2013-12-5,54,43,30,54,41,29,91,87,80,30.23,29.94,18,1,18,0.00
2013-12-6,56,49,35,55,47,34,91,85,75,30.17,29.88,14,2,16,0.41
2013-12-7,38,33,26,34,30,24,90,82,62,30.50,30.10,20,2,22,0.18
2013-12-8,31,28,21,24,20,17,86,68,53,30.64,30.49,10,1,10,0.00
2013-12-9,36,32,25,36,30,20,91,87,64,30.53,29.92,11,1,11,0.11
2013-12-10,33,30,22,32,29,20,91,89,82,30.06,29.83,13,1,15,0.01
2013-12-11,29,23,19,25,20,17,86,81,73,30.28,30.06,14,1,14,0.00
2013-12-12,24,19,12,19,12,5,86,69,44,30.34,30.11,21,2,22,0.00
2013-12-13,29,21,12,19,14,8,82,68,53,30.41,30.05,19,2,21,0.00
2013-12-14,25,15,12,24,8,-2,89,68,46,30.65,30.14,13,2,13,0.00
2013-12-15,36,27,20,35,26,18,90,87,82,30.15,29.45,28,0,28,0.01
2013-12-16,28,21,12,21,14,8,88,69,47,30.25,29.79,22,3,24,0.13
2013-12-17,20,12,4,18,9,1,86,82,75,30.32,29.98,15,1,15,0.00
2013-12-18,32,24,17,23,20,15,87,78,61,30.14,29.91,21,2,21,0.21
2013-12-19,41,31,19,30,25,17,85,74,54,30.17,30.00,26,1,26,0.23
2013-12-20,50,38,30,38,33,28,85,74,53,30.15,29.95,14,1,14,0.29
2013-12-21,54,45,36,48,42,34,90,82,71,30.01,29.90,14,2,14,0.01
2013-12-22,64,52,37,61,50,36,91,86,65,30.04,29.78,25,2,25,0.00
2013-12-23,39,36,33,39,35,33,91,90,90,30.12,29.99,12,1,15,0.25
2013-12-24,39,32,26,38,26,15,91,70,52,30.27,30.09,16,3,16,0.00
2013-12-25,26,20,15,17,8,4,75,56,43,30.59,30.27,23,3,23,0.00
2013-12-26,33,25,15,30,21,10,86,79,72,30.55,30.14,10,0,11,0.00
2013-12-27,34,26,20,25,21,18,87,76,56,30.36,30.24,16,1,16,0.01
2013-12-28,45,33,24,31,26,21,84,72,48,30.27,30.04,21,-2,21,0.00
2013-12-29,42,36,30,39,34,27,90,84,69,30.08,29.42,24,2,24,0.90
2013-12-30,37,31,20,36,24,12,91,71,42,30.19,29.55,28,4,28,0.00
2013-12-31,26,20,15,16,11,2,79,64,48,30.27,30.08,12,1,12,0.00
2014-1-1,27,21,15,16,12,8,76,64,45,30.44,30.27,18,1,20,0.00
2014-1-2,21,14,2,18,11,-1,84,81,66,30.41,29.86,27,5,28,0.00